Liberty, North Carolina
Current Conditions -  °F | °C
As of 8:15 PM on Sunday 23 Nov 2014 (Local Time) from K5W8 Reporting Station
Moderate Rain Moderate Rain  
Wind Chill: 59°   Ceiling: 400
Heat Index: 59°   Visibility: 10mi
Dew Point: 59°   Wind: 12mph
Humidity: 100%   Direction: 120°ESE
Pressure: 29.84"   Gusts: 16mph
Location:  35.85°N, 79.57°W
Report Text: K5W8 240115Z AUTO 12010G14KT 100V160 10SM RA OVC004 15/15 A2984 RMK AO2 T01520152
Loading
Personal Weather Stations






























Interactive Weather Map New forecast layout! Learn more

10-Day Weather Forecast

Advertisements
Track Severe Weather on mobile